This is the latest recevied weather packets stored in our database for station/object KK7RJD. If no packets are shown the sender has not sent any weather packets the latest 1 day(s).
| Time | Temp. | Humidity | Pressure | Rain* | Wind** | Luminosity | Snow |
|---|---|---|---|---|---|---|---|
| 1778078574 | 5° C | 50% | 1019.1 hPa | 0 mm | - | 382 W/m² | - |
| 1778077365 | 4.44° C | 51% | 1019.3 hPa | 0 mm | - | 311 W/m² | - |
| 1778077063 | 4.44° C | 53% | 1019.5 hPa | 0 mm | - | 290 W/m² | - |
| 1778076761 | 3.89° C | 53% | 1019.2 hPa | 0 mm | - | 281 W/m² | - |
| 1778076155 | 3.33° C | 58% | 1019.4 hPa | 0 mm | - | 48 W/m² | - |
| 1778075852 | 3.33° C | 57% | 1019.2 hPa | 0 mm | - | 50 W/m² | - |
| 1778075245 | 2.78° C | 59% | 1019.5 hPa | 0 mm | - | 102 W/m² | - |
| 1778074639 | 2.22° C | 64% | 1019.4 hPa | 0 mm | - | 159 W/m² | - |
| 1778074335 | 1.67° C | 65% | 1019.4 hPa | 0 mm | - | 143 W/m² | - |
| 1778073729 | 1.11° C | 68% | 1019.2 hPa | 0 mm | - | 115 W/m² | - |
| 1778073427 | 0.56° C | 69% | 1019.3 hPa | 0 mm | - | 104 W/m² | - |
| 1778072820 | 0° C | 72% | 1019.1 hPa | 0 mm | - | 82 W/m² | - |
| 1778071308 | -1.67° C | 74% | 1019.1 hPa | 0 mm | - | 39 W/m² | - |
| 1778070704 | -2.22° C | 77% | 1019 hPa | 0 mm | - | 27 W/m² | - |
| 1778070098 | -2.78° C | 79% | 1018.7 hPa | 0 mm | - | 17 W/m² | - |
| 1778069190 | -3.33° C | 79% | 1018.6 hPa | 0 mm | - | 7 W/m² | - |
| 1778067980 | -2.78° C | 78% | 1018.6 hPa | 0 mm | - | 1 W/m² | - |
| 1778067376 | -2.78° C | 78% | 1018.7 hPa | 0 mm | - | 0 W/m² | - |
| 1778065862 | -3.33° C | 78% | 1018.4 hPa | 0 mm | - | 0 W/m² | - |
| 1778064650 | -2.78° C | 76% | 1018.5 hPa | 0 mm | - | 0 W/m² | - |
| 1778063439 | -2.78° C | 77% | 1018.5 hPa | 0 mm | - | 0 W/m² | - |
| 1778061323 | -2.22° C | 75% | 1018.5 hPa | 0 mm | - | 0 W/m² | - |
| 1778058297 | -1.67° C | 74% | 1018.6 hPa | 0 mm | - | 0 W/m² | - |
| 1778057690 | -1.11° C | 72% | 1018.5 hPa | 0 mm | - | 0 W/m² | - |
| 1778057386 | -1.11° C | 71% | 1018.4 hPa | 0 mm | - | 0 W/m² | - |
* Rain latest hour (hover to see other rain measurements)
** Current wind speed in m/s (hover to see current wind gust speed)